createdAt,value
2019-03-11T00:01:59.590Z,3.13
2019-03-11T00:05:23.395Z,2.90
2019-03-11T00:08:47.273Z,2.77
2019-03-11T00:12:11.131Z,3.10
2019-03-11T00:15:34.881Z,3.70
2019-03-11T00:18:58.694Z,2.70
2019-03-11T00:22:22.468Z,2.70
2019-03-11T00:25:46.868Z,2.50
2019-03-11T00:29:11.549Z,2.40
2019-03-11T00:32:35.541Z,2.63
2019-03-11T00:35:59.466Z,2.00
2019-03-11T00:39:23.124Z,2.80
2019-03-11T00:42:47.640Z,2.67
2019-03-11T00:46:11.975Z,2.67
2019-03-11T00:49:35.815Z,2.63
2019-03-11T00:52:59.630Z,1.80
2019-03-11T00:56:23.415Z,1.90
2019-03-11T00:59:47.230Z,2.33
2019-03-11T01:03:10.920Z,2.17
2019-03-11T01:06:34.767Z,1.60
2019-03-11T01:09:58.635Z,1.83
2019-03-11T01:13:22.360Z,1.53
2019-03-11T01:16:46.186Z,1.40
2019-03-11T01:20:11.464Z,1.30
2019-03-11T01:23:35.263Z,1.57
2019-03-11T01:26:59.006Z,1.63
2019-03-11T01:30:22.770Z,1.60
2019-03-11T01:33:46.518Z,1.50
2019-03-11T01:37:10.498Z,1.70
2019-03-11T01:40:34.180Z,1.57
2019-03-11T01:43:58.811Z,2.10
2019-03-11T01:47:22.755Z,1.70
2019-03-11T01:50:46.641Z,2.00
2019-03-11T01:54:10.734Z,2.10
2019-03-11T01:57:35.431Z,2.30
2019-03-11T02:00:59.438Z,3.10
2019-03-11T02:04:23.269Z,2.90
2019-03-11T02:07:46.984Z,3.30
2019-03-11T02:11:10.750Z,2.30
2019-03-11T02:14:34.515Z,3.30
2019-03-11T02:17:58.343Z,3.03
2019-03-11T02:21:22.366Z,1.93
2019-03-11T02:24:46.791Z,1.30
2019-03-11T02:28:10.588Z,2.10
2019-03-11T02:31:34.892Z,1.50
2019-03-11T02:34:58.711Z,1.30
2019-03-11T02:38:22.445Z,1.53
2019-03-11T02:41:47.134Z,2.50
2019-03-11T02:45:11.722Z,1.60
2019-03-11T02:48:35.479Z,2.00
2019-03-11T02:51:59.418Z,1.93
2019-03-11T02:55:23.258Z,2.03
2019-03-11T02:58:47.040Z,2.27
2019-03-11T03:02:16.521Z,2.10
2019-03-11T03:05:41.887Z,1.97
2019-03-11T03:09:09.628Z,1.33
2019-03-11T03:12:34.248Z,1.60
2019-03-11T03:15:58.225Z,1.60
2019-03-11T03:19:22.231Z,1.50
2019-03-11T03:22:46.418Z,1.00
2019-03-11T03:26:10.302Z,1.47
2019-03-11T03:29:34.275Z,2.00
2019-03-11T03:32:58.367Z,1.30
2019-03-11T03:36:22.180Z,1.30
2019-03-11T03:39:46.018Z,1.30
2019-03-11T03:43:09.789Z,1.90
2019-03-11T03:46:33.624Z,2.50
2019-03-11T03:49:57.450Z,1.73
2019-03-11T03:53:21.246Z,2.80
2019-03-11T03:56:44.939Z,4.23
2019-03-11T04:00:10.223Z,1.93
2019-03-11T04:03:34.095Z,2.80
2019-03-11T04:06:57.852Z,3.07
2019-03-11T04:10:21.642Z,2.83
2019-03-11T04:13:45.734Z,3.23
2019-03-11T04:17:09.550Z,4.23
2019-03-11T04:20:33.380Z,4.07
2019-03-11T04:23:57.098Z,5.67
2019-03-11T04:27:20.918Z,6.67
2019-03-11T04:30:44.724Z,4.57
2019-03-11T04:34:08.679Z,5.40
2019-03-11T04:37:32.458Z,5.30
2019-03-11T04:40:56.163Z,3.63
2019-03-11T04:44:20.155Z,4.27
2019-03-11T04:47:44.296Z,4.90
2019-03-11T04:51:08.225Z,3.53
2019-03-11T04:54:32.220Z,5.67
2019-03-11T04:57:56.783Z,17.07
2019-03-11T05:01:20.551Z,7.53
2019-03-11T05:04:44.532Z,4.97
2019-03-11T05:08:08.360Z,5.43
2019-03-11T05:11:32.586Z,4.67
2019-03-11T05:14:56.422Z,5.73
2019-03-11T05:18:20.093Z,5.50
2019-03-11T05:21:43.976Z,5.57
2019-03-11T05:25:10.364Z,8.10
2019-03-11T05:28:34.251Z,8.80
2019-03-11T05:31:58.042Z,7.90
2019-03-11T05:35:21.963Z,6.77
2019-03-11T05:38:45.676Z,5.93
2019-03-11T05:42:10.030Z,5.10
2019-03-11T05:45:34.815Z,8.10
2019-03-11T05:48:58.705Z,5.60
2019-03-11T05:52:22.756Z,5.93
2019-03-11T05:55:46.522Z,7.00
2019-03-11T05:59:10.510Z,6.70
2019-03-11T06:02:36.463Z,6.30
2019-03-11T06:05:59.641Z,6.23
2019-03-11T06:09:23.381Z,8.23
2019-03-11T06:12:47.875Z,7.40
2019-03-11T06:16:12.321Z,7.67
2019-03-11T06:19:39.165Z,6.97
2019-03-11T06:23:04.945Z,5.10
2019-03-11T06:26:28.695Z,4.80
2019-03-11T06:29:52.670Z,4.30
2019-03-11T06:33:16.918Z,4.70
2019-03-11T06:36:40.706Z,6.40
2019-03-11T06:40:07.715Z,5.93
2019-03-11T06:43:31.750Z,5.33
2019-03-11T06:46:55.683Z,4.43
2019-03-11T06:50:19.531Z,5.63
2019-03-11T06:53:43.496Z,6.30
2019-03-11T06:57:07.175Z,7.30
2019-03-11T07:00:31.033Z,14.03
2019-03-11T07:03:54.823Z,7.73
2019-03-11T07:07:18.776Z,6.10
2019-03-11T07:10:42.766Z,5.67
2019-03-11T07:14:06.701Z,6.43
2019-03-11T07:17:30.651Z,6.60
2019-03-11T07:20:54.561Z,5.20
2019-03-11T07:24:18.326Z,6.03
2019-03-11T07:27:42.401Z,5.67
2019-03-11T07:31:06.355Z,4.80
2019-03-11T07:34:30.264Z,3.20
2019-03-11T07:37:54.145Z,2.90
2019-03-11T07:41:21.159Z,4.20
2019-03-11T07:44:45.911Z,4.13
2019-03-11T07:48:09.763Z,4.27
2019-03-11T07:51:34.131Z,4.40
2019-03-11T07:55:02.008Z,4.47
2019-03-11T07:58:28.596Z,6.83
2019-03-11T08:01:52.573Z,5.20
2019-03-11T08:05:16.926Z,5.90
2019-03-11T08:08:41.051Z,5.90
2019-03-11T08:12:05.065Z,5.10
2019-03-11T08:15:29.295Z,4.93
2019-03-11T08:18:53.060Z,4.87
2019-03-11T08:22:18.651Z,5.57
2019-03-11T08:25:42.571Z,5.13
2019-03-11T08:29:06.445Z,4.70
2019-03-11T08:32:30.386Z,4.93
2019-03-11T08:35:55.580Z,4.60
2019-03-11T08:39:19.733Z,4.00
2019-03-11T08:42:43.760Z,3.70
2019-03-11T08:46:07.617Z,5.20
2019-03-11T08:49:32.443Z,4.63
2019-03-11T08:52:56.171Z,4.50
2019-03-11T08:56:20.266Z,4.80
2019-03-11T08:59:44.150Z,4.50
2019-03-11T09:03:08.160Z,4.23
2019-03-11T09:06:32.039Z,3.93
2019-03-11T09:09:55.763Z,3.70
2019-03-11T09:13:19.673Z,4.20
2019-03-11T09:16:43.586Z,3.70
2019-03-11T09:20:10.388Z,3.60
2019-03-11T09:23:34.200Z,3.43
2019-03-11T09:26:57.955Z,2.93
2019-03-11T09:30:23.622Z,2.30
2019-03-11T09:33:47.478Z,2.50
2019-03-11T09:37:11.163Z,2.60
2019-03-11T09:40:35.015Z,2.23
2019-03-11T09:43:59.103Z,2.10
2019-03-11T09:47:22.843Z,2.20
2019-03-11T09:50:46.638Z,2.70
2019-03-11T09:54:10.514Z,2.67
2019-03-11T09:57:34.250Z,2.20
2019-03-11T10:00:58.186Z,3.60
2019-03-11T10:04:22.169Z,3.63
2019-03-11T10:07:46.118Z,3.93
2019-03-11T10:11:10.011Z,3.13
2019-03-11T10:14:33.816Z,3.00
2019-03-11T10:17:57.754Z,2.40
2019-03-11T10:21:21.503Z,2.70
2019-03-11T10:24:45.386Z,2.87
2019-03-11T10:28:09.188Z,2.80
2019-03-11T10:31:33.156Z,2.93
2019-03-11T10:34:56.872Z,2.77
2019-03-11T10:38:21.605Z,2.40
2019-03-11T10:41:46.128Z,2.30
2019-03-11T10:45:12.490Z,3.50
2019-03-11T10:48:37.686Z,2.93
2019-03-11T10:52:01.690Z,3.87
2019-03-11T10:55:26.524Z,4.23
2019-03-11T10:58:50.449Z,5.20
2019-03-11T11:02:14.344Z,4.90
2019-03-11T11:05:38.319Z,5.33
2019-03-11T11:09:02.200Z,5.87
2019-03-11T11:12:25.934Z,7.23
2019-03-11T11:15:49.719Z,6.03
2019-03-11T11:19:13.472Z,5.70
2019-03-11T11:22:37.401Z,9.63
2019-03-11T11:26:01.149Z,10.93
2019-03-11T11:29:24.869Z,11.00
2019-03-11T11:32:48.736Z,8.50
2019-03-11T11:36:12.586Z,8.40
2019-03-11T11:39:37.059Z,9.87
2019-03-11T11:43:03.825Z,11.10
2019-03-11T11:46:27.607Z,9.27
2019-03-11T11:49:51.311Z,3.53
2019-03-11T11:53:15.076Z,3.67
2019-03-11T11:56:39.705Z,3.50
2019-03-11T12:00:04.627Z,4.30
2019-03-11T12:03:28.370Z,4.53
2019-03-11T12:06:52.179Z,6.10
2019-03-11T12:10:23.778Z,5.27
2019-03-11T12:13:47.470Z,6.90
2019-03-11T12:17:11.439Z,4.90
2019-03-11T12:20:35.666Z,6.27
2019-03-11T12:23:59.523Z,6.10
2019-03-11T12:27:23.316Z,5.37
2019-03-11T12:30:49.198Z,5.80
2019-03-11T12:34:12.901Z,13.13
2019-03-11T12:37:36.696Z,10.00
2019-03-11T12:41:00.665Z,10.23
2019-03-11T12:44:24.522Z,11.40
2019-03-11T12:47:48.536Z,9.60
2019-03-11T12:51:12.400Z,18.27
2019-03-11T12:54:36.290Z,12.40
2019-03-11T12:58:00.064Z,14.30
2019-03-11T13:01:23.895Z,24.63
2019-03-11T13:04:47.746Z,28.73
2019-03-11T13:08:11.616Z,19.47
2019-03-11T13:11:35.516Z,19.50
2019-03-11T13:14:59.263Z,9.80
2019-03-11T13:18:40.510Z,7.57
2019-03-11T13:22:04.326Z,5.87
2019-03-11T13:25:30.684Z,4.10
2019-03-11T13:28:55.563Z,3.13
2019-03-11T13:32:19.432Z,4.70
2019-03-11T13:35:45.005Z,4.60
2019-03-11T13:39:10.759Z,3.50
2019-03-11T13:42:34.818Z,2.93
2019-03-11T13:45:59.610Z,3.00
2019-03-11T13:49:23.517Z,5.60
2019-03-11T13:52:48.263Z,23.17
2019-03-11T13:56:12.078Z,4.93
2019-03-11T13:59:35.926Z,7.40
2019-03-11T14:02:59.730Z,5.00
2019-03-11T14:06:23.484Z,4.10
2019-03-11T14:09:47.330Z,3.90
2019-03-11T14:13:11.252Z,4.50
2019-03-11T14:16:35.010Z,4.37
2019-03-11T14:19:58.922Z,4.40
2019-03-11T14:23:22.694Z,4.63
2019-03-11T14:26:46.540Z,4.50
2019-03-11T14:30:21.082Z,8.00
2019-03-11T14:33:44.856Z,4.50
2019-03-11T14:37:08.848Z,5.63
2019-03-11T14:40:32.686Z,9.07
2019-03-11T14:43:56.644Z,15.87
2019-03-11T14:47:20.394Z,28.50
2019-03-11T14:50:44.428Z,12.40
2019-03-11T14:54:08.464Z,8.00
2019-03-11T14:57:32.473Z,6.80
2019-03-11T15:00:56.325Z,11.83
2019-03-11T15:04:26.048Z,7.17
2019-03-11T15:07:50.091Z,7.43
2019-03-11T15:11:14.036Z,8.57
2019-03-11T15:14:38.618Z,8.97
2019-03-11T15:18:02.904Z,12.60
2019-03-11T15:21:27.154Z,11.07
2019-03-11T15:24:51.058Z,11.30
2019-03-11T15:28:15.049Z,12.90
2019-03-11T15:31:38.963Z,11.10
2019-03-11T15:35:03.863Z,11.03
2019-03-11T15:38:28.314Z,14.80
2019-03-11T15:41:52.068Z,10.93
2019-03-11T15:48:32.903Z,11.40
2019-03-11T15:51:56.785Z,17.87
2019-03-11T15:55:20.603Z,10.73
2019-03-11T15:58:44.372Z,11.53
2019-03-11T16:02:08.193Z,9.07
2019-03-11T16:05:32.100Z,10.87
2019-03-11T16:08:56.594Z,5.57
2019-03-11T16:12:20.697Z,5.27
2019-03-11T16:15:44.805Z,7.53
2019-03-11T16:19:09.074Z,9.60
2019-03-11T16:22:32.956Z,7.37
2019-03-11T16:25:56.732Z,7.47
2019-03-11T16:29:20.496Z,6.40
2019-03-11T16:32:57.816Z,8.10
2019-03-11T16:36:10.348Z,9.03
2019-03-11T16:39:35.242Z,22.43
2019-03-11T16:42:59.553Z,12.63
2019-03-11T16:46:23.500Z,19.33
2019-03-11T16:49:49.381Z,16.03
2019-03-11T16:53:13.229Z,14.40
2019-03-11T16:56:37.371Z,22.17
2019-03-11T17:00:01.194Z,21.47
2019-03-11T17:03:25.172Z,19.10
2019-03-11T17:06:52.565Z,9.47
2019-03-11T17:10:18.785Z,10.77
2019-03-11T17:13:42.756Z,10.37
2019-03-11T17:17:14.280Z,9.37
2019-03-11T17:20:38.196Z,9.73
2019-03-11T17:24:02.177Z,10.97
2019-03-11T17:27:26.992Z,14.63
2019-03-11T17:30:51.051Z,14.10
2019-03-11T17:34:19.816Z,14.67
2019-03-11T17:37:43.615Z,16.30
2019-03-11T17:41:07.810Z,17.77
2019-03-11T17:44:31.636Z,16.17
2019-03-11T17:47:55.695Z,22.63
2019-03-11T17:51:19.551Z,35.30
2019-03-11T17:54:43.887Z,59.63
2019-03-11T17:58:07.823Z,46.23
2019-03-11T18:01:31.647Z,35.80
2019-03-11T18:04:55.449Z,46.00
2019-03-11T18:08:19.398Z,52.07
2019-03-11T18:11:43.376Z,54.03
2019-03-11T18:15:09.658Z,31.67
2019-03-11T18:18:33.769Z,54.40
2019-03-11T18:21:57.935Z,18.77
2019-03-11T18:25:24.482Z,20.43
2019-03-11T18:28:48.246Z,11.33
2019-03-11T18:32:12.264Z,10.63
2019-03-11T18:35:36.586Z,9.73
2019-03-11T18:39:00.485Z,26.37
2019-03-11T18:42:28.221Z,19.73
2019-03-11T18:45:52.091Z,18.50
2019-03-11T18:49:17.452Z,20.23
2019-03-11T18:52:42.756Z,16.43
2019-03-11T18:56:06.628Z,21.03
2019-03-11T18:59:30.577Z,20.50
2019-03-11T19:02:54.786Z,17.07
2019-03-11T19:06:18.952Z,18.03
2019-03-11T19:09:43.064Z,16.60
2019-03-11T19:13:09.525Z,18.37
2019-03-11T19:16:32.700Z,28.07
2019-03-11T19:19:59.819Z,14.63
2019-03-11T19:23:23.115Z,20.07
2019-03-11T19:26:46.942Z,23.97
2019-03-11T19:30:13.507Z,123.80
2019-03-11T19:33:37.578Z,26.30
2019-03-11T19:37:01.481Z,27.30
2019-03-11T19:40:28.922Z,100.80
2019-03-11T19:43:53.573Z,19.93
2019-03-11T19:47:18.737Z,64.30
2019-03-11T19:50:42.586Z,39.73
2019-03-11T19:54:07.328Z,26.57
2019-03-11T19:57:33.324Z,30.23
2019-03-11T20:00:57.994Z,26.80
2019-03-11T20:04:21.854Z,23.90
2019-03-11T20:07:45.984Z,54.43
2019-03-11T20:11:09.877Z,43.13
2019-03-11T20:14:33.829Z,36.93
2019-03-11T20:17:57.785Z,25.87
2019-03-11T20:21:21.835Z,38.50
2019-03-11T20:24:45.982Z,45.83
2019-03-11T20:28:09.807Z,50.83
2019-03-11T20:31:34.859Z,71.93
2019-03-11T20:34:59.522Z,43.13
2019-03-11T20:38:36.441Z,24.70
2019-03-11T20:42:00.595Z,22.57
2019-03-11T20:45:24.569Z,25.40
2019-03-11T20:48:48.949Z,74.93
2019-03-11T20:52:13.611Z,33.60
2019-03-11T20:55:37.581Z,25.90
2019-03-11T20:59:01.608Z,19.87
2019-03-11T21:02:25.650Z,19.23
2019-03-11T21:05:52.500Z,21.10
2019-03-11T21:09:16.571Z,18.37
2019-03-11T21:12:46.913Z,21.63
2019-03-11T21:16:10.731Z,33.67
2019-03-11T21:19:34.693Z,21.03
2019-03-11T21:22:58.689Z,22.20
2019-03-11T21:26:22.619Z,22.27
2019-03-11T21:29:47.197Z,19.67
2019-03-11T21:33:11.125Z,26.33
2019-03-11T21:36:35.284Z,22.17
2019-03-11T21:40:00.844Z,20.77
2019-03-11T21:43:24.840Z,18.80
2019-03-11T21:46:50.823Z,21.07
2019-03-11T21:50:22.423Z,20.80
2019-03-11T21:53:48.530Z,21.87
2019-03-11T21:57:12.667Z,19.57
2019-03-11T22:00:36.657Z,20.07
2019-03-11T22:04:00.575Z,19.97
2019-03-11T22:07:24.269Z,22.00
2019-03-11T22:10:48.402Z,19.40
2019-03-11T22:14:12.422Z,22.70
2019-03-11T22:17:36.266Z,24.67
2019-03-11T22:21:00.040Z,23.77
2019-03-11T22:24:23.849Z,27.60
2019-03-11T22:27:47.684Z,23.50
2019-03-11T22:31:11.595Z,22.67
2019-03-11T22:34:38.247Z,22.50
2019-03-11T22:38:02.270Z,23.27
2019-03-11T22:41:26.240Z,21.80
2019-03-11T22:44:50.083Z,35.43
2019-03-11T22:48:14.718Z,25.10
2019-03-11T22:51:38.663Z,28.63
2019-03-11T22:55:02.436Z,26.30
2019-03-11T22:58:26.295Z,25.93
2019-03-11T23:01:50.588Z,24.67
2019-03-11T23:05:14.465Z,27.63
2019-03-11T23:08:40.484Z,32.13
2019-03-11T23:12:04.530Z,27.37
2019-03-11T23:15:28.256Z,26.83
2019-03-11T23:18:52.482Z,28.00
2019-03-11T23:22:16.252Z,28.47
2019-03-11T23:25:40.116Z,28.87
2019-03-11T23:29:04.036Z,31.43
2019-03-11T23:32:27.860Z,27.67
2019-03-11T23:35:51.671Z,23.93
2019-03-11T23:39:15.397Z,27.23
2019-03-11T23:42:39.168Z,24.30
2019-03-11T23:46:03.029Z,23.63
2019-03-11T23:49:26.804Z,24.87
2019-03-11T23:52:50.643Z,22.93
2019-03-11T23:56:14.881Z,25.20
2019-03-11T23:59:38.689Z,22.43
